createdAt,value
2018-08-30T00:01:51.915Z,48.37
2018-08-30T00:04:19.912Z,49.67
2018-08-30T00:06:47.859Z,50.07
2018-08-30T00:09:15.852Z,44.60
2018-08-30T00:11:43.800Z,51.77
2018-08-30T00:14:11.772Z,43.83
2018-08-30T00:16:39.722Z,56.63
2018-08-30T00:19:07.710Z,60.63
2018-08-30T00:21:35.659Z,60.17
2018-08-30T00:24:03.635Z,57.40
2018-08-30T00:26:31.689Z,69.20
2018-08-30T00:28:59.675Z,61.53
2018-08-30T00:31:27.747Z,74.03
2018-08-30T00:33:55.791Z,65.03
2018-08-30T00:36:24.451Z,64.53
2018-08-30T00:38:52.423Z,71.03
2018-08-30T00:41:20.434Z,72.33
2018-08-30T00:43:48.316Z,70.67
2018-08-30T00:46:16.369Z,74.07
2018-08-30T00:48:44.337Z,73.23
2018-08-30T00:51:12.328Z,70.37
2018-08-30T00:53:40.304Z,67.20
2018-08-30T00:56:08.283Z,69.50
2018-08-30T00:58:36.372Z,76.77
2018-08-30T01:01:04.601Z,76.50
2018-08-30T01:03:32.618Z,83.37
2018-08-30T01:06:00.580Z,80.87
2018-08-30T01:08:28.608Z,81.10
2018-08-30T01:10:56.580Z,77.90
2018-08-30T01:13:29.189Z,89.32
2018-08-30T01:15:57.187Z,79.60
2018-08-30T01:18:25.177Z,86.23
2018-08-30T01:20:53.204Z,103.07
2018-08-30T01:23:21.180Z,86.67
2018-08-30T01:25:49.168Z,95.37
2018-08-30T01:28:17.144Z,105.23
2018-08-30T01:30:46.135Z,103.47
2018-08-30T01:33:14.122Z,100.70
2018-08-30T01:35:42.099Z,105.20
2018-08-30T01:38:10.073Z,104.80
2018-08-30T01:40:38.040Z,105.33
2018-08-30T01:43:06.034Z,108.90
2018-08-30T01:45:34.008Z,108.97
2018-08-30T01:48:01.954Z,108.30
2018-08-30T01:50:30.159Z,101.33
2018-08-30T01:52:58.228Z,109.50
2018-08-30T01:55:26.197Z,106.30
2018-08-30T01:57:54.235Z,110.70
2018-08-30T02:00:22.210Z,111.70
2018-08-30T02:02:50.175Z,112.50
2018-08-30T02:05:18.208Z,103.83
2018-08-30T02:07:46.231Z,100.63
2018-08-30T02:10:14.201Z,107.70
2018-08-30T02:12:42.207Z,106.40
2018-08-30T02:15:10.243Z,100.27
2018-08-30T02:17:38.348Z,102.73
2018-08-30T02:20:06.711Z,102.60
2018-08-30T02:22:34.671Z,99.23
2018-08-30T02:25:02.676Z,103.97
2018-08-30T02:27:30.662Z,102.57
2018-08-30T02:29:58.652Z,101.20
2018-08-30T02:32:26.625Z,96.67
2018-08-30T02:34:54.708Z,101.90
2018-08-30T02:37:22.668Z,94.57
2018-08-30T02:39:50.752Z,99.40
2018-08-30T02:42:18.702Z,92.20
2018-08-30T02:44:46.687Z,94.67
2018-08-30T02:47:14.675Z,95.30
2018-08-30T02:49:42.685Z,88.77
2018-08-30T02:52:10.772Z,88.63
2018-08-30T02:54:38.727Z,92.17
2018-08-30T02:57:06.736Z,89.10
2018-08-30T02:59:34.682Z,85.67
2018-08-30T03:02:02.660Z,90.63
2018-08-30T03:04:30.655Z,90.87
2018-08-30T03:06:59.616Z,77.77
2018-08-30T03:09:27.634Z,85.60
2018-08-30T03:11:55.653Z,81.40
2018-08-30T03:14:23.661Z,74.90
2018-08-30T03:16:51.592Z,75.47
2018-08-30T03:19:19.588Z,70.60
2018-08-30T03:21:47.580Z,73.17
2018-08-30T03:24:15.634Z,67.33
2018-08-30T03:26:43.674Z,62.43
2018-08-30T03:29:11.912Z,66.50
2018-08-30T03:31:39.864Z,60.73
2018-08-30T03:34:07.815Z,59.90
2018-08-30T03:36:35.758Z,57.10
2018-08-30T03:39:04.203Z,51.87
2018-08-30T03:41:32.203Z,56.47
2018-08-30T03:44:00.175Z,58.50
2018-08-30T03:46:28.116Z,59.37
2018-08-30T03:48:56.168Z,60.77
2018-08-30T03:51:24.108Z,57.70
2018-08-30T03:53:52.112Z,58.40
2018-08-30T03:56:20.127Z,66.30
2018-08-30T03:58:48.190Z,60.40
2018-08-30T04:01:16.175Z,56.63
2018-08-30T04:03:44.155Z,58.90
2018-08-30T04:06:12.140Z,60.70
2018-08-30T04:08:40.139Z,58.90
2018-08-30T04:11:08.159Z,57.37
2018-08-30T04:13:36.281Z,59.63
2018-08-30T04:16:04.184Z,59.33
2018-08-30T04:18:32.167Z,59.30
2018-08-30T04:21:00.196Z,56.30
2018-08-30T04:23:28.215Z,56.63
2018-08-30T04:25:56.180Z,63.97
2018-08-30T04:28:24.156Z,62.07
2018-08-30T04:30:52.203Z,58.40
2018-08-30T04:33:20.175Z,64.03
2018-08-30T04:35:48.345Z,65.20
2018-08-30T04:38:16.309Z,64.80
2018-08-30T04:40:44.419Z,82.43
2018-08-30T04:43:12.371Z,65.73
2018-08-30T04:45:40.339Z,69.77
2018-08-30T04:48:08.386Z,58.47
2018-08-30T04:50:36.599Z,63.77
2018-08-30T04:53:04.596Z,61.27
2018-08-30T04:55:32.577Z,56.30
2018-08-30T04:58:01.071Z,56.00
2018-08-30T05:00:29.077Z,54.20
2018-08-30T05:02:57.086Z,56.77
2018-08-30T05:05:25.103Z,59.07
2018-08-30T05:07:53.202Z,58.87
2018-08-30T05:10:21.177Z,54.20
2018-08-30T05:12:49.120Z,54.67
2018-08-30T05:15:17.147Z,50.10
2018-08-30T05:17:45.124Z,53.53
2018-08-30T05:20:13.112Z,58.40
2018-08-30T05:22:41.096Z,55.77
2018-08-30T05:25:09.083Z,63.23
2018-08-30T05:27:37.068Z,54.30
2018-08-30T05:30:05.045Z,54.07
2018-08-30T05:32:32.997Z,57.57
2018-08-30T05:35:01.018Z,50.70
2018-08-30T05:37:29.005Z,52.27
2018-08-30T05:39:56.987Z,52.87
2018-08-30T05:42:25.031Z,49.50
2018-08-30T05:44:53.044Z,48.50
2018-08-30T05:47:21.227Z,49.37
2018-08-30T05:49:49.191Z,52.83
2018-08-30T05:52:17.176Z,51.37
2018-08-30T05:54:45.256Z,49.17
2018-08-30T05:57:13.636Z,51.60
2018-08-30T05:59:41.630Z,45.50
2018-08-30T06:02:09.579Z,47.50
2018-08-30T06:04:37.556Z,53.60
2018-08-30T06:07:05.539Z,48.70
2018-08-30T06:09:33.536Z,47.20
2018-08-30T06:12:01.631Z,46.53
2018-08-30T06:14:29.651Z,50.07
2018-08-30T06:16:57.742Z,51.13
2018-08-30T06:19:25.746Z,43.53
2018-08-30T06:21:53.885Z,47.00
2018-08-30T06:24:21.867Z,46.50
2018-08-30T06:26:50.359Z,47.43
2018-08-30T06:29:18.169Z,44.30
2018-08-30T06:31:46.105Z,43.33
2018-08-30T06:34:14.030Z,42.50
2018-08-30T06:36:42.084Z,44.43
2018-08-30T06:39:10.036Z,50.60
2018-08-30T06:41:38.028Z,55.37
2018-08-30T06:44:06.001Z,55.57
2018-08-30T06:46:33.976Z,49.97
2018-08-30T06:49:02.024Z,57.73
2018-08-30T06:51:30.048Z,52.53
2018-08-30T06:53:58.112Z,51.80
2018-08-30T06:56:26.256Z,46.10
2018-08-30T06:58:54.143Z,51.23
2018-08-30T07:01:22.108Z,44.77
2018-08-30T07:03:50.082Z,45.87
2018-08-30T07:06:18.231Z,47.27
2018-08-30T07:08:46.179Z,43.73
2018-08-30T07:11:14.143Z,40.93
2018-08-30T07:13:42.138Z,41.33
2018-08-30T07:16:10.156Z,42.20
2018-08-30T07:18:38.350Z,49.03
2018-08-30T07:21:06.357Z,41.63
2018-08-30T07:23:34.336Z,42.50
2018-08-30T07:26:02.344Z,52.00
2018-08-30T07:28:30.535Z,40.67
2018-08-30T07:30:58.566Z,48.07
2018-08-30T07:33:26.671Z,45.27
2018-08-30T07:35:54.750Z,48.40
2018-08-30T07:38:22.815Z,46.07
2018-08-30T07:40:50.801Z,45.10
2018-08-30T07:43:18.785Z,49.23
2018-08-30T07:45:46.767Z,46.23
2018-08-30T07:48:14.734Z,46.27
2018-08-30T07:50:42.696Z,44.67
2018-08-30T07:53:10.659Z,46.50
2018-08-30T07:55:38.688Z,44.20
2018-08-30T07:58:06.685Z,46.13
2018-08-30T08:00:34.687Z,47.07
2018-08-30T08:03:02.648Z,46.37
2018-08-30T08:05:30.916Z,44.48
2018-08-30T08:07:59.102Z,52.83
2018-08-30T08:10:27.116Z,47.87
2018-08-30T08:12:55.287Z,44.55
2018-08-30T08:15:23.257Z,42.13
2018-08-30T08:17:51.291Z,43.37
2018-08-30T08:20:19.248Z,43.10
2018-08-30T08:22:47.216Z,44.43
2018-08-30T08:25:15.323Z,52.27
2018-08-30T08:27:43.255Z,45.30
2018-08-30T08:30:11.268Z,43.50
2018-08-30T08:32:39.212Z,45.00
2018-08-30T08:35:07.219Z,47.20
2018-08-30T08:37:35.250Z,46.60
2018-08-30T08:40:07.055Z,37.07
2018-08-30T08:42:35.088Z,42.13
2018-08-30T08:45:03.040Z,42.37
2018-08-30T08:47:31.578Z,39.53
2018-08-30T08:50:06.057Z,43.00
2018-08-30T08:52:34.096Z,40.73
2018-08-30T08:55:02.042Z,38.33
2018-08-30T08:57:30.020Z,40.67
2018-08-30T08:59:58.007Z,34.00
2018-08-30T09:02:25.988Z,41.37
2018-08-30T09:04:54.052Z,36.30
2018-08-30T09:07:22.060Z,37.43
2018-08-30T09:09:50.003Z,32.93
2018-08-30T09:12:17.954Z,37.47
2018-08-30T09:14:45.977Z,39.07
2018-08-30T09:17:13.970Z,32.43
2018-08-30T09:19:41.905Z,33.57
2018-08-30T09:22:10.110Z,31.07
2018-08-30T09:24:38.081Z,34.67
2018-08-30T09:27:06.076Z,31.87
2018-08-30T09:29:34.027Z,36.03
2018-08-30T09:32:02.333Z,34.73
2018-08-30T09:34:30.336Z,35.77
2018-08-30T09:36:58.790Z,36.37
2018-08-30T09:39:27.449Z,29.87
2018-08-30T09:41:56.657Z,37.97
2018-08-30T09:44:24.989Z,39.23
2018-08-30T09:46:54.056Z,39.27
2018-08-30T09:49:22.201Z,34.10
2018-08-30T09:51:50.404Z,38.07
2018-08-30T09:54:18.372Z,32.80
2018-08-30T09:56:46.811Z,33.80
2018-08-30T09:59:14.966Z,29.93
2018-08-30T10:01:47.555Z,32.60
2018-08-30T10:04:15.791Z,30.25
2018-08-30T10:06:43.850Z,30.55
2018-08-30T10:09:12.084Z,29.37
2018-08-30T10:11:40.618Z,35.53
2018-08-30T10:14:09.250Z,30.80
2018-08-30T10:16:37.533Z,34.10
2018-08-30T10:19:05.858Z,32.40
2018-08-30T10:21:34.071Z,31.43
2018-08-30T10:25:17.991Z,36.40
2018-08-30T10:27:46.032Z,30.23
2018-08-30T10:30:14.192Z,36.20
2018-08-30T10:32:42.178Z,29.90
2018-08-30T10:35:10.394Z,32.23
2018-08-30T10:37:38.425Z,26.50
2018-08-30T10:40:07.289Z,25.25
2018-08-30T10:42:35.708Z,33.30
2018-08-30T10:45:04.797Z,27.55
2018-08-30T10:47:33.447Z,25.68
2018-08-30T10:50:02.036Z,24.03
2018-08-30T10:52:30.837Z,24.10
2018-08-30T10:54:59.947Z,27.50
2018-08-30T10:57:29.333Z,23.77
2018-08-30T10:59:57.831Z,25.43
2018-08-30T11:02:26.660Z,30.93
2018-08-30T11:04:54.666Z,29.30
2018-08-30T11:07:23.049Z,24.83
2018-08-30T11:09:51.111Z,23.10
2018-08-30T11:12:19.029Z,25.10
2018-08-30T11:14:47.268Z,28.93
2018-08-30T11:17:15.318Z,24.77
2018-08-30T11:19:43.283Z,29.03
2018-08-30T11:22:11.256Z,28.60
2018-08-30T11:24:39.299Z,34.87
2018-08-30T11:27:07.295Z,27.30
2018-08-30T11:29:35.367Z,27.47
2018-08-30T11:32:04.104Z,30.73
2018-08-30T11:34:32.046Z,26.00
2018-08-30T11:36:59.988Z,28.37
2018-08-30T11:39:28.003Z,26.70
2018-08-30T11:41:56.036Z,25.77
2018-08-30T11:44:24.115Z,24.63
2018-08-30T11:46:52.355Z,26.37
2018-08-30T11:49:20.774Z,28.00
2018-08-30T11:51:48.707Z,22.80
2018-08-30T11:54:16.890Z,28.40
2018-08-30T11:56:44.789Z,24.30
2018-08-30T11:59:12.709Z,25.67
2018-08-30T12:01:40.749Z,26.33
2018-08-30T12:04:09.491Z,23.23
2018-08-30T12:06:37.501Z,23.63
2018-08-30T12:09:06.776Z,21.33
2018-08-30T12:11:35.718Z,22.63
2018-08-30T12:14:04.659Z,22.23
2018-08-30T12:16:33.067Z,24.90
2018-08-30T12:19:01.009Z,22.13
2018-08-30T12:21:29.061Z,20.67
2018-08-30T12:23:57.040Z,24.40
2018-08-30T12:26:25.045Z,19.70
2018-08-30T12:28:53.088Z,25.37
2018-08-30T12:31:21.247Z,28.53
2018-08-30T12:33:49.219Z,19.73
2018-08-30T12:36:17.217Z,16.63
2018-08-30T12:38:45.285Z,16.33
2018-08-30T12:41:13.376Z,17.73
2018-08-30T12:43:41.816Z,19.30
2018-08-30T12:46:10.181Z,20.40
2018-08-30T12:48:38.434Z,19.57
2018-08-30T12:51:06.630Z,20.60
2018-08-30T12:53:35.745Z,23.13
2018-08-30T12:56:04.250Z,20.03
2018-08-30T12:58:32.239Z,22.00
2018-08-30T13:01:01.203Z,19.90
2018-08-30T13:03:29.850Z,20.57
2018-08-30T13:05:58.535Z,20.77
2018-08-30T13:08:26.767Z,19.17
2018-08-30T13:10:55.109Z,22.40
2018-08-30T13:13:23.214Z,19.20
2018-08-30T13:15:51.319Z,21.90
2018-08-30T13:18:19.455Z,18.47
2018-08-30T13:20:47.403Z,22.03
2018-08-30T13:23:15.735Z,21.53
2018-08-30T13:25:44.251Z,22.50
2018-08-30T13:28:12.190Z,19.37
2018-08-30T13:30:40.426Z,21.37
2018-08-30T13:33:08.621Z,29.47
2018-08-30T13:35:36.488Z,31.90
2018-08-30T13:38:04.902Z,25.00
2018-08-30T13:40:32.775Z,29.30
2018-08-30T13:43:00.847Z,25.90
2018-08-30T13:45:28.623Z,23.17
2018-08-30T13:47:56.620Z,21.60
2018-08-30T13:50:24.828Z,21.50
2018-08-30T13:52:52.946Z,24.93
2018-08-30T13:55:20.969Z,23.63
2018-08-30T13:57:49.141Z,21.97
2018-08-30T14:00:17.172Z,28.50
2018-08-30T14:02:45.087Z,25.30
2018-08-30T14:05:13.061Z,19.67
2018-08-30T14:07:40.843Z,19.90
2018-08-30T14:10:08.846Z,26.63
2018-08-30T14:12:36.872Z,21.53
2018-08-30T14:15:05.271Z,25.07
2018-08-30T14:17:32.632Z,21.33
2018-08-30T14:20:00.655Z,25.23
2018-08-30T14:22:28.667Z,20.53
2018-08-30T14:24:56.715Z,27.33
2018-08-30T14:27:24.730Z,18.17
2018-08-30T14:29:52.797Z,23.43
2018-08-30T14:32:20.755Z,22.23
2018-08-30T14:34:48.800Z,20.07
2018-08-30T14:37:16.896Z,19.50
2018-08-30T14:39:44.946Z,20.70
2018-08-30T14:42:12.832Z,19.43
2018-08-30T14:44:40.832Z,22.43
2018-08-30T14:47:08.934Z,18.60
2018-08-30T14:49:37.207Z,15.40
2018-08-30T14:52:05.307Z,17.50
2018-08-30T14:54:33.368Z,17.77
2018-08-30T14:57:01.280Z,16.67
2018-08-30T14:59:29.364Z,21.27
2018-08-30T15:01:57.282Z,15.23
2018-08-30T15:04:25.287Z,17.70
2018-08-30T15:06:53.247Z,18.27
2018-08-30T15:09:21.233Z,18.20
2018-08-30T15:11:49.235Z,20.13
2018-08-30T15:14:17.235Z,18.67
2018-08-30T15:16:45.209Z,19.13
2018-08-30T15:19:13.172Z,20.60
2018-08-30T15:21:41.154Z,19.57
2018-08-30T15:24:09.145Z,21.87
2018-08-30T15:26:38.080Z,14.73
2018-08-30T15:29:05.919Z,17.50
2018-08-30T15:31:33.889Z,15.23
2018-08-30T15:34:02.325Z,15.90
2018-08-30T15:36:30.067Z,11.50
2018-08-30T15:38:58.259Z,14.20
2018-08-30T15:41:26.386Z,12.00
2018-08-30T15:43:54.247Z,13.30
2018-08-30T15:46:22.300Z,16.40
2018-08-30T15:48:50.621Z,9.85
2018-08-30T15:51:18.696Z,9.33
2018-08-30T15:53:46.653Z,12.93
2018-08-30T15:56:14.909Z,14.03
2018-08-30T15:58:43.624Z,16.63
2018-08-30T16:01:12.064Z,12.70
2018-08-30T16:03:40.041Z,13.30
2018-08-30T16:06:09.448Z,15.13
2018-08-30T16:08:38.405Z,20.10
2018-08-30T16:11:06.670Z,15.87
2018-08-30T16:13:34.636Z,21.43
2018-08-30T16:16:02.935Z,15.87
2018-08-30T16:18:31.728Z,18.23
2018-08-30T16:20:59.764Z,22.30
2018-08-30T16:23:29.186Z,25.27
2018-08-30T16:25:57.186Z,26.87
2018-08-30T16:28:26.647Z,20.67
2018-08-30T16:30:54.787Z,27.00
2018-08-30T16:33:23.576Z,21.20
2018-08-30T16:35:51.672Z,19.67
2018-08-30T16:38:20.107Z,20.90
2018-08-30T16:40:48.360Z,17.70
2018-08-30T16:43:16.409Z,15.80
2018-08-30T16:45:44.583Z,15.97
2018-08-30T16:48:12.757Z,17.93
2018-08-30T16:50:40.903Z,19.00
2018-08-30T16:53:09.803Z,17.50
2018-08-30T16:55:38.538Z,18.50
2018-08-30T16:58:06.963Z,22.23
2018-08-30T17:00:35.112Z,17.10
2018-08-30T17:03:03.985Z,22.37
2018-08-30T17:05:32.271Z,15.90
2018-08-30T17:08:00.480Z,24.63
2018-08-30T17:10:28.548Z,20.77
2018-08-30T17:12:57.001Z,27.80
2018-08-30T17:15:26.198Z,12.60
2018-08-30T17:17:54.552Z,17.63
2018-08-30T17:20:33.483Z,17.47
2018-08-30T17:23:01.729Z,21.37
2018-08-30T17:25:30.777Z,18.53
2018-08-30T17:27:59.327Z,19.07
2018-08-30T17:30:27.899Z,17.00
2018-08-30T17:32:55.905Z,12.50
2018-08-30T17:35:24.317Z,14.00
2018-08-30T17:37:52.272Z,21.57
2018-08-30T17:40:20.499Z,21.73
2018-08-30T17:42:50.065Z,23.77
2018-08-30T17:45:18.248Z,16.90
2018-08-30T17:47:46.580Z,22.10
2018-08-30T17:50:18.094Z,19.83
2018-08-30T17:52:47.183Z,18.63
2018-08-30T17:55:15.854Z,20.17
2018-08-30T17:57:44.153Z,17.50
2018-08-30T18:00:13.288Z,20.37
2018-08-30T18:02:42.016Z,16.77
2018-08-30T18:05:10.576Z,20.43
2018-08-30T18:07:38.566Z,18.60
2018-08-30T18:10:07.820Z,15.97
2018-08-30T18:12:35.978Z,18.77
2018-08-30T18:15:04.317Z,20.17
2018-08-30T18:17:32.358Z,18.23
2018-08-30T18:20:00.332Z,13.93
2018-08-30T18:22:28.531Z,21.40
2018-08-30T18:24:56.715Z,17.97
2018-08-30T18:27:24.731Z,14.87
2018-08-30T18:29:52.850Z,19.03
2018-08-30T18:32:20.827Z,17.90
2018-08-30T18:34:48.800Z,17.77
2018-08-30T18:37:16.752Z,12.97
2018-08-30T18:39:44.719Z,14.03
2018-08-30T18:42:12.835Z,13.23
2018-08-30T18:44:40.874Z,15.13
2018-08-30T18:47:08.831Z,15.97
2018-08-30T18:49:36.796Z,12.10
2018-08-30T18:52:05.019Z,12.50
2018-08-30T18:54:32.988Z,14.90
2018-08-30T18:57:01.093Z,15.17
2018-08-30T18:59:29.095Z,10.27
2018-08-30T19:01:57.246Z,17.50
2018-08-30T19:04:25.171Z,10.73
2018-08-30T19:06:53.193Z,24.90
2018-08-30T19:09:21.140Z,13.37
2018-08-30T19:11:49.111Z,16.20
2018-08-30T19:14:17.111Z,17.00
2018-08-30T19:16:50.612Z,13.40
2018-08-30T19:19:21.225Z,14.87
2018-08-30T19:21:49.198Z,19.07
2018-08-30T19:24:22.620Z,12.63
2018-08-30T19:26:50.792Z,15.10
2018-08-30T19:29:19.104Z,18.73
2018-08-30T19:31:47.289Z,17.63
2018-08-30T19:34:15.380Z,21.53
2018-08-30T19:36:43.260Z,11.70
2018-08-30T19:39:12.047Z,19.45
2018-08-30T19:41:40.036Z,9.70
2018-08-30T19:44:08.748Z,11.70
2018-08-30T19:46:36.789Z,13.90
2018-08-30T19:49:04.863Z,16.73
2018-08-30T19:51:32.823Z,21.20
2018-08-30T19:54:00.828Z,13.10
2018-08-30T19:56:28.883Z,14.43
2018-08-30T19:58:56.854Z,19.80
2018-08-30T20:01:24.893Z,17.97
2018-08-30T20:03:52.912Z,12.40
2018-08-30T20:06:20.872Z,15.97
2018-08-30T20:08:48.923Z,13.57
2018-08-30T20:11:16.907Z,23.27
2018-08-30T20:13:44.892Z,15.20
2018-08-30T20:16:13.775Z,20.07
2018-08-30T20:18:41.775Z,16.60
2018-08-30T20:21:09.753Z,12.20
2018-08-30T20:23:37.801Z,14.53
2018-08-30T20:26:05.960Z,20.17
2018-08-30T20:28:33.928Z,17.70
2018-08-30T20:31:01.971Z,22.30
2018-08-30T20:33:29.981Z,14.00
2018-08-30T20:35:58.077Z,17.30
2018-08-30T20:38:26.103Z,17.63
2018-08-30T20:40:54.093Z,23.87
2018-08-30T20:43:22.051Z,19.80
2018-08-30T20:45:50.016Z,14.50
2018-08-30T20:48:17.976Z,15.00
2018-08-30T20:50:45.919Z,19.87
2018-08-30T20:53:14.375Z,13.60
2018-08-30T20:55:42.378Z,28.33
2018-08-30T20:58:10.396Z,29.57
2018-08-30T21:00:38.406Z,78.87
2018-08-30T21:03:06.367Z,96.93
2018-08-30T21:05:34.336Z,81.23
2018-08-30T21:08:02.311Z,73.30
2018-08-30T21:10:30.313Z,51.00
2018-08-30T21:12:58.309Z,36.73
2018-08-30T21:15:26.354Z,33.47
2018-08-30T21:17:54.366Z,21.50
2018-08-30T21:20:22.366Z,23.07
2018-08-30T21:22:50.324Z,18.13
2018-08-30T21:25:18.267Z,17.27
2018-08-30T21:27:46.334Z,16.80
2018-08-30T21:30:15.017Z,14.90
2018-08-30T21:32:43.048Z,12.60
2018-08-30T21:35:11.751Z,13.63
2018-08-30T21:37:39.691Z,16.20
2018-08-30T21:40:07.667Z,11.93
2018-08-30T21:42:35.628Z,13.53
2018-08-30T21:45:03.682Z,13.70
2018-08-30T21:47:31.672Z,19.87
2018-08-30T21:49:59.637Z,20.83
2018-08-30T21:52:27.588Z,13.50
2018-08-30T21:54:55.592Z,17.17
2018-08-30T21:57:23.657Z,11.87
2018-08-30T21:59:51.581Z,15.13
2018-08-30T22:02:19.555Z,15.13
2018-08-30T22:04:47.499Z,20.10
2018-08-30T22:07:15.694Z,15.23
2018-08-30T22:09:43.680Z,15.60
2018-08-30T22:12:11.642Z,14.20
2018-08-30T22:14:39.624Z,18.43
2018-08-30T22:17:07.556Z,12.63
2018-08-30T22:19:35.563Z,17.43
2018-08-30T22:22:03.632Z,12.13
2018-08-30T22:24:31.602Z,11.50
2018-08-30T22:26:59.563Z,17.10
2018-08-30T22:29:27.530Z,9.60
2018-08-30T22:31:55.624Z,14.30
2018-08-30T22:34:23.570Z,15.73
2018-08-30T22:36:51.555Z,14.80
2018-08-30T22:39:19.508Z,19.17
2018-08-30T22:41:47.473Z,12.10
2018-08-30T22:44:16.351Z,14.60
2018-08-30T22:46:44.339Z,17.30
2018-08-30T22:49:12.328Z,14.90
2018-08-30T22:51:40.447Z,10.73
2018-08-30T22:54:08.472Z,13.07
2018-08-30T22:56:36.450Z,16.00
2018-08-30T22:59:04.761Z,19.67
2018-08-30T23:01:32.831Z,17.43
2018-08-30T23:04:01.023Z,22.13
2018-08-30T23:06:29.057Z,12.90
2018-08-30T23:08:56.992Z,23.57
2018-08-30T23:11:25.000Z,12.90
2018-08-30T23:13:52.923Z,17.27
2018-08-30T23:16:20.888Z,13.27
2018-08-30T23:18:48.920Z,18.47
2018-08-30T23:21:17.029Z,15.75
2018-08-30T23:23:45.085Z,9.20
2018-08-30T23:26:13.043Z,14.43
2018-08-30T23:28:41.157Z,10.50
2018-08-30T23:31:09.184Z,12.47
2018-08-30T23:33:37.192Z,14.53
2018-08-30T23:36:05.371Z,16.23
2018-08-30T23:38:33.320Z,10.13
2018-08-30T23:41:01.963Z,9.70
2018-08-30T23:43:30.050Z,16.60
2018-08-30T23:45:58.002Z,10.70
2018-08-30T23:48:26.021Z,8.60
2018-08-30T23:50:54.043Z,17.20
2018-08-30T23:53:22.073Z,14.03
2018-08-30T23:55:50.032Z,12.13
2018-08-30T23:58:29.464Z,15.03
